Portada
METAR-TAF:

METAR-TAF

Aeropuertos :

Tarbes Lourdes, Francia

Aeropuerto de Tarbes-Lourdes-Pirineos

latitud: 43-11N, longitud: 000-00W, altitud: 379 m

Observación

El informe se hizo hace 19 minutos, a las 09:30 UTC
Viento 3 kt del norte, variando entre norte-noroeste y noreste
Temperatura 20°C
Humedad 60%
Presión 1019 hPa
Visibilidad 10 km o más
sin nubes por debajo de 1500 m y sin presencia de cumulonimbus.

METAR: LFBT 170930Z AUTO 36003KT 330V040 CAVOK 20/12 Q1019 NOSIG

Hora: 11:49 (09:49 UTC)

Pronóstico

El informe se hizo hace 4 horas y 49 minutos, a las 05:00 UTC
Pronóstico válido del 17 a las 06 UTC al 18 a las 06 UTC
Viento 2 kt con dirección variable
Visibilidad 10 km o más
sin nubes por debajo de 1500 m y sin presencia de cumulonimbus.
Temporalmente
del 17 a las 12 UTC al 17 a las 18 UTC
Viento 7 kt del este

TAF: LFBT 170500Z 1706/1806 VRB02KT CAVOK TEMPO 1712/1718 08007KT

Observaciones y pronósticos meteorológicos de más de 4000 aeropuertos (mensajes METAR y TAF).

Los puntos amarillos y rojos representan las estaciones disponibles.

Ponga el ratón en el punto deseado para ver el nombre de la estación.

Haga clic para ver las observaciones y los pronósticos meteorológicos.

Para cambiar el mapa : haga clic en los botones verdes con una cruz de color negro para hacer un zoom, en el botón verde con un guión para alejar o en las flechas verdes para mapas adyacentes.


METAR-TAF: